Time;durP1;ratioP1;P1;durP2;ratioP2;P2;SDS_P1;SDS_P2;PMS_P1;PMS_P2;Temp;Humidity;BMP_temperature;BMP_pressure;BME280_temperature;BME280_humidity;BME280_pressure;Samples;Min_cycle;Max_cycle;Signal;HPM_P1;HPM_P2
2022/04/02 00:00:55;;;;;;;8.77;2.77;;;0.90;99.90;;;;;;5036185;28;20045;-91
2022/04/02 00:03:21;;;;;;;8.13;2.47;;;1.10;99.90;;;;;;5018162;28;20037;-91
2022/04/02 00:05:47;;;;;;;8.03;2.70;;;0.80;99.90;;;;;;5017693;28;20087;-90
2022/04/02 00:08:13;;;;;;;9.37;2.40;;;0.80;99.90;;;;;;5018661;28;20091;-91
2022/04/02 00:10:38;;;;;;;9.37;2.70;;;0.80;99.90;;;;;;5042599;28;20041;-91
2022/04/02 00:13:04;;;;;;;9.93;2.80;;;0.80;99.90;;;;;;5024908;28;20041;-90
2022/04/02 00:15:30;;;;;;;14.00;3.60;;;0.80;99.90;;;;;;5028798;28;20555;-90
2022/04/02 00:17:56;;;;;;;7.97;2.70;;;0.80;99.90;;;;;;5041929;28;20111;-90
2022/04/02 00:20:22;;;;;;;9.73;2.90;;;0.70;99.90;;;;;;5035236;28;20048;-91
2022/04/02 00:25:31;;;;;;;;;;;0.80;99.90;;;;;;5035638;28;20120;-91
2022/04/02 00:27:57;;;;;;;8.47;2.67;;;0.70;99.90;;;;;;5018197;28;20363;-91
2022/04/02 00:30:23;;;;;;;7.77;2.80;;;0.70;99.90;;;;;;5018005;28;20114;-91
2022/04/02 00:32:48;;;;;;;8.90;3.10;;;0.70;99.90;;;;;;5017434;28;20041;-91
2022/04/02 00:35:14;;;;;;;8.57;2.57;;;0.60;99.90;;;;;;5017370;28;20042;-90
2022/04/02 00:37:40;;;;;;;8.17;2.73;;;0.80;99.90;;;;;;5027473;28;20057;-91
2022/04/02 00:40:07;;;;;;;9.20;3.17;;;0.60;99.90;;;;;;5016405;28;20045;-91
2022/04/02 00:42:33;;;;;;;7.83;2.90;;;0.60;99.90;;;;;;5034914;28;20121;-90
2022/04/02 00:44:58;;;;;;;8.77;2.87;;;0.60;99.90;;;;;;5017461;28;20062;-90
2022/04/02 00:47:24;;;;;;;8.67;3.00;;;0.60;99.90;;;;;;5034391;28;20049;-91
2022/04/02 00:49:53;;;;;;;9.23;2.90;;;0.60;99.90;;;;;;5017257;28;20072;-91
2022/04/02 00:52:19;;;;;;;8.57;2.70;;;0.60;99.90;;;;;;5017058;28;20045;-90
2022/04/02 00:54:48;;;;;;;10.00;2.90;;;0.60;99.90;;;;;;5016373;28;20447;-91
2022/04/02 00:57:14;;;;;;;9.33;3.03;;;0.50;99.90;;;;;;5034772;28;20049;-91
2022/04/02 00:59:39;;;;;;;9.77;2.87;;;0.50;99.90;;;;;;5034909;28;20048;-90
2022/04/02 01:02:05;;;;;;;7.47;2.90;;;0.50;99.90;;;;;;5016487;28;20053;-91
2022/04/02 01:04:30;;;;;;;10.47;3.07;;;0.50;99.90;;;;;;5034402;28;20133;-91
2022/04/02 01:06:59;;;;;;;7.80;2.70;;;0.50;99.90;;;;;;5017146;28;20096;-89
2022/04/02 01:09:25;;;;;;;11.23;2.80;;;0.50;99.90;;;;;;5015816;28;20071;-91
2022/04/02 01:11:52;;;;;;;9.13;2.80;;;0.60;99.90;;;;;;5034922;28;20049;-90
2022/04/02 01:14:18;;;;;;;7.57;2.50;;;0.40;99.90;;;;;;5016669;28;20123;-90
2022/04/02 01:16:45;;;;;;;9.53;2.90;;;0.50;99.90;;;;;;5034121;28;20056;-91
2022/04/02 01:19:11;;;;;;;8.00;2.30;;;0.50;99.90;;;;;;5034452;28;20041;-90
2022/04/02 01:21:37;;;;;;;8.37;2.60;;;0.50;99.90;;;;;;5016313;28;20128;-89
2022/04/02 01:24:03;;;;;;;10.07;3.00;;;0.40;99.90;;;;;;5034164;28;20045;-91
2022/04/02 01:26:30;;;;;;;7.60;2.70;;;0.50;99.90;;;;;;5034159;28;20061;-90
2022/04/02 01:28:57;;;;;;;7.50;2.70;;;0.50;99.90;;;;;;5037657;28;20103;-90
2022/04/02 01:31:24;;;;;;;8.17;2.93;;;0.50;99.90;;;;;;5039168;28;20049;-90
2022/04/02 01:33:51;;;;;;;8.93;2.70;;;0.40;99.90;;;;;;5034351;28;20405;-91
2022/04/02 01:36:17;;;;;;;7.83;2.60;;;0.40;99.90;;;;;;5033436;28;20107;-91
2022/04/02 01:38:43;;;;;;;8.13;2.90;;;0.60;99.90;;;;;;5016489;28;20073;-90
2022/04/02 01:41:08;;;;;;;8.60;2.50;;;0.40;99.90;;;;;;5040104;28;20045;-90
2022/04/02 01:43:34;;;;;;;8.77;2.87;;;0.40;99.90;;;;;;5033120;28;20052;-90
2022/04/02 01:46:01;;;;;;;9.10;2.80;;;0.40;99.90;;;;;;5016175;28;20054;-90
2022/04/02 01:48:27;;;;;;;8.67;2.80;;;0.40;99.90;;;;;;5016171;28;20053;-90
2022/04/02 01:50:53;;;;;;;8.30;2.70;;;0.40;99.90;;;;;;5032603;28;20103;-89
2022/04/02 01:53:20;;;;;;;8.53;2.80;;;0.40;99.90;;;;;;5033216;28;20049;-90
2022/04/02 01:55:46;;;;;;;8.40;2.90;;;0.30;99.90;;;;;;5016413;28;20056;-90
2022/04/02 01:58:12;;;;;;;7.63;2.60;;;0.30;99.90;;;;;;5032634;28;20046;-91
2022/04/02 02:00:39;;;;;;;9.60;2.77;;;0.30;99.90;;;;;;5016117;28;20102;-90
2022/04/02 02:03:06;;;;;;;9.00;2.80;;;0.30;99.90;;;;;;5018113;28;20049;-90
2022/04/02 02:05:33;;;;;;;8.43;2.60;;;0.30;99.90;;;;;;5036428;28;20064;-90
2022/04/02 02:07:58;;;;;;;10.40;3.23;;;0.30;99.90;;;;;;5015794;28;20081;-89
2022/04/02 02:10:24;;;;;;;9.23;2.80;;;0.30;99.90;;;;;;5015424;28;20075;-90
2022/04/02 02:12:49;;;;;;;9.80;3.03;;;0.30;99.90;;;;;;5033153;28;20052;-90
2022/04/02 02:15:18;;;;;;;10.13;2.80;;;0.30;99.90;;;;;;5033345;28;20041;-90
2022/04/02 02:17:45;;;;;;;9.37;2.77;;;0.30;99.90;;;;;;5033427;28;20041;-90
2022/04/02 02:20:12;;;;;;;9.00;2.70;;;0.20;99.90;;;;;;5014419;28;20520;-91
2022/04/02 02:22:38;;;;;;;7.73;2.87;;;0.90;99.90;;;;;;5015526;28;20048;-90
2022/04/02 02:25:05;;;;;;;10.53;3.13;;;0.40;99.90;;;;;;5014838;28;20057;-90
2022/04/02 02:27:31;;;;;;;9.03;3.00;;;0.20;99.90;;;;;;5033189;28;20481;-90
2022/04/02 02:29:56;;;;;;;8.10;2.80;;;0.10;99.90;;;;;;5015779;28;20056;-90
2022/04/02 02:32:22;;;;;;;7.67;2.70;;;0.10;99.90;;;;;;5014415;28;20048;-91
2022/04/02 02:37:32;;;;;;;;;;;0.10;99.90;;;;;;5015778;28;20054;-91
2022/04/02 02:39:58;;;;;;;10.13;2.93;;;0.40;99.90;;;;;;5032721;28;20273;-90
2022/04/02 02:42:23;;;;;;;9.43;3.63;;;0.00;99.90;;;;;;5035544;28;20412;-90
2022/04/02 02:44:49;;;;;;;10.20;3.10;;;0.00;99.90;;;;;;5020474;28;20441;-89
2022/04/02 02:47:14;;;;;;;9.10;2.83;;;0.00;99.90;;;;;;5032322;28;20049;-90
2022/04/02 02:49:40;;;;;;;8.07;2.43;;;0.00;99.90;;;;;;5032883;28;20091;-90
2022/04/02 02:52:06;;;;;;;7.50;2.50;;;0.00;99.90;;;;;;5033477;28;20071;-90
2022/04/02 02:54:32;;;;;;;8.80;2.73;;;-0.10;99.90;;;;;;5014548;28;20133;-90
2022/04/02 02:56:58;;;;;;;9.77;2.87;;;-0.10;99.90;;;;;;5016762;28;20088;-90
2022/04/02 02:59:24;;;;;;;8.20;2.70;;;-0.10;99.90;;;;;;5042982;28;20047;-89
2022/04/02 03:01:49;;;;;;;11.03;3.00;;;-0.10;99.90;;;;;;5046805;28;20072;-91
2022/04/02 03:04:15;;;;;;;8.73;3.33;;;-0.10;99.90;;;;;;5038205;28;20077;-90
2022/04/02 03:06:40;;;;;;;8.37;3.17;;;-0.10;99.90;;;;;;5015303;28;20050;-90
2022/04/02 03:09:06;;;;;;;8.50;2.87;;;-0.10;99.90;;;;;;5032419;28;20401;-90
2022/04/02 03:11:32;;;;;;;8.67;2.83;;;-0.10;99.90;;;;;;5032605;28;20050;-91
2022/04/02 03:13:57;;;;;;;9.07;3.00;;;-0.10;99.90;;;;;;5016085;28;20041;-91
2022/04/02 03:16:23;;;;;;;8.60;2.80;;;-0.10;99.90;;;;;;5014050;28;20052;-91
2022/04/02 03:18:48;;;;;;;8.60;3.07;;;-0.10;99.90;;;;;;5014953;28;20454;-90
2022/04/02 03:21:14;;;;;;;8.93;3.00;;;-0.10;99.90;;;;;;5032060;28;20045;-91
2022/04/02 03:23:40;;;;;;;8.50;2.90;;;-0.10;99.90;;;;;;5014926;28;20144;-91
2022/04/02 03:26:06;;;;;;;8.47;2.90;;;-0.10;99.90;;;;;;5033202;28;20042;-91
2022/04/02 03:28:32;;;;;;;8.73;2.93;;;-0.10;99.90;;;;;;5031963;28;20149;-90
2022/04/02 03:30:58;;;;;;;8.27;2.87;;;-0.10;99.90;;;;;;5032702;28;20034;-91
2022/04/02 03:33:23;;;;;;;9.87;3.03;;;0.00;99.90;;;;;;5032593;28;20385;-91
2022/04/02 03:35:49;;;;;;;8.07;2.87;;;-0.10;99.90;;;;;;5014710;28;20051;-90
2022/04/02 03:38:14;;;;;;;8.10;3.10;;;-0.10;99.90;;;;;;5032594;28;20045;-91
2022/04/02 03:40:41;;;;;;;8.67;2.90;;;-0.10;99.90;;;;;;5033147;28;20042;-90
2022/04/02 03:43:06;;;;;;;10.27;2.90;;;-0.10;99.90;;;;;;5032328;28;20354;-91
2022/04/02 03:45:32;;;;;;;9.53;3.20;;;-0.20;99.90;;;;;;5014302;28;20053;-91
2022/04/02 03:47:57;;;;;;;11.00;2.87;;;0.80;99.90;;;;;;5025356;28;20146;-90
2022/04/02 03:50:23;;;;;;;10.13;2.90;;;-0.20;99.90;;;;;;5016512;28;20477;-90
2022/04/02 03:52:49;;;;;;;7.97;2.60;;;-0.20;99.90;;;;;;5014672;28;20136;-90
2022/04/02 03:55:14;;;;;;;8.67;2.67;;;-0.20;99.90;;;;;;5032288;28;20424;-90
2022/04/02 03:57:40;;;;;;;8.57;3.03;;;-0.20;99.90;;;;;;5031841;28;20057;-91
2022/04/02 04:00:08;;;;;;;9.93;3.10;;;-0.20;99.90;;;;;;5032355;28;20112;-90
2022/04/02 04:02:37;;;;;;;9.40;2.90;;;-0.20;99.90;;;;;;5032280;28;20091;-90
2022/04/02 04:05:05;;;;;;;11.13;3.10;;;-0.20;99.90;;;;;;5013934;28;20042;-90
2022/04/02 04:07:30;;;;;;;11.53;3.00;;;-0.30;99.90;;;;;;5013844;28;20060;-90
2022/04/02 04:09:56;;;;;;;8.77;2.90;;;-0.30;99.90;;;;;;5032806;28;20042;-90
2022/04/02 04:12:21;;;;;;;9.23;3.00;;;-0.30;99.90;;;;;;5013525;28;20076;-90
2022/04/02 04:14:47;;;;;;;8.70;2.70;;;-0.30;99.90;;;;;;5016797;28;20051;-91
2022/04/02 04:17:13;;;;;;;9.67;2.80;;;-0.30;99.90;;;;;;5035565;28;20053;-90
2022/04/02 04:19:38;;;;;;;8.47;2.70;;;-0.30;99.90;;;;;;5035477;28;20097;-90
2022/04/02 04:22:06;;;;;;;9.13;3.10;;;-0.20;99.90;;;;;;5017957;28;20556;-90
2022/04/02 04:24:32;;;;;;;9.10;3.20;;;-0.20;99.90;;;;;;5017037;28;20176;-90
2022/04/02 04:26:58;;;;;;;10.87;3.50;;;-0.20;99.90;;;;;;5035882;28;20045;-90
2022/04/02 04:29:23;;;;;;;9.83;2.93;;;-0.20;99.90;;;;;;5017314;28;20048;-90
2022/04/02 04:31:49;;;;;;;9.57;2.70;;;-0.20;99.90;;;;;;5017016;28;20041;-90
2022/04/02 04:34:17;;;;;;;10.07;3.43;;;-0.20;99.90;;;;;;5035440;28;20044;-90
2022/04/02 04:36:42;;;;;;;10.27;2.97;;;-0.20;99.90;;;;;;5018128;28;20045;-90
2022/04/02 04:39:08;;;;;;;9.60;2.83;;;-0.20;99.90;;;;;;5017414;28;20132;-90
2022/04/02 04:41:34;;;;;;;9.17;3.17;;;-0.30;99.90;;;;;;5035067;28;20042;-90
2022/04/02 04:43:59;;;;;;;8.97;2.90;;;-0.20;99.90;;;;;;5035230;28;20088;-89
2022/04/02 04:46:25;;;;;;;12.70;3.57;;;-0.30;99.90;;;;;;5017570;28;20065;-90
2022/04/02 04:48:52;;;;;;;10.57;2.90;;;-0.30;99.90;;;;;;5035617;28;20124;-90
2022/04/02 04:51:19;;;;;;;11.03;3.57;;;-0.30;99.90;;;;;;5037002;28;20488;-89
2022/04/02 04:53:46;;;;;;;10.00;3.30;;;-0.30;99.90;;;;;;5040458;28;20489;-90
2022/04/02 04:56:11;;;;;;;10.40;3.10;;;-0.30;99.90;;;;;;5018391;28;20077;-90
2022/04/02 04:58:37;;;;;;;13.27;3.50;;;-0.30;99.90;;;;;;5035187;28;20075;-90
2022/04/02 05:01:02;;;;;;;10.17;3.40;;;-0.30;99.90;;;;;;5016387;28;20041;-90
2022/04/02 05:03:32;;;;;;;11.13;3.03;;;-0.30;99.90;;;;;;5017162;28;20045;-90
2022/04/02 05:05:59;;;;;;;8.50;3.00;;;-0.30;99.90;;;;;;5034889;28;20056;-90
2022/04/02 05:08:25;;;;;;;9.40;3.37;;;-0.30;99.90;;;;;;5016203;28;20045;-90
2022/04/02 05:10:51;;;;;;;9.27;3.10;;;-0.30;99.90;;;;;;5017122;28;20063;-90
2022/04/02 05:13:17;;;;;;;10.90;3.30;;;-0.20;99.90;;;;;;5034969;28;20119;-90
2022/04/02 05:15:44;;;;;;;8.97;3.23;;;-0.30;99.90;;;;;;5016373;28;20084;-90
2022/04/02 05:18:11;;;;;;;10.03;3.97;;;-0.30;99.90;;;;;;5034857;28;20034;-90
2022/04/02 05:20:41;;;;;;;10.33;3.50;;;-0.30;99.90;;;;;;5016446;28;20057;-90
2022/04/02 05:23:08;;;;;;;10.77;3.60;;;-0.30;99.90;;;;;;5034247;28;20054;-90
2022/04/02 05:25:34;;;;;;;9.30;3.33;;;-0.20;99.90;;;;;;5033072;28;20523;-90
2022/04/02 05:28:02;;;;;;;9.43;3.20;;;-0.30;99.90;;;;;;5033920;28;20058;-89
2022/04/02 05:30:28;;;;;;;9.07;3.40;;;-0.30;99.90;;;;;;5034446;28;20037;-89
2022/04/02 05:32:55;;;;;;;11.53;3.37;;;-0.30;99.90;;;;;;5016776;28;20049;-89
2022/04/02 05:35:21;;;;;;;10.23;3.50;;;-0.20;99.90;;;;;;5033819;28;20058;-90
2022/04/02 05:37:47;;;;;;;11.23;3.47;;;-0.20;99.90;;;;;;5016250;28;20053;-89
2022/04/02 05:40:13;;;;;;;10.93;3.20;;;-0.20;99.90;;;;;;5016576;28;20079;-90
2022/04/02 05:42:39;;;;;;;9.30;3.10;;;-0.20;99.90;;;;;;5033434;28;20444;-90
2022/04/02 05:45:05;;;;;;;11.07;3.57;;;-0.20;99.90;;;;;;5034802;28;20050;-90
2022/04/02 05:47:51;;;;;;;10.23;3.80;;;-0.20;99.90;;;;;;5035985;28;20053;-88
2022/04/02 05:50:19;;;;;;;10.10;3.40;;;-0.10;99.90;;;;;;5028344;28;20053;-89
2022/04/02 05:52:47;;;;;;;10.90;3.77;;;-0.10;99.90;;;;;;5027410;28;20105;-90
2022/04/02 05:55:12;;;;;;;10.47;3.73;;;-0.10;99.90;;;;;;5036360;28;20080;-88
2022/04/02 05:57:40;;;;;;;8.67;3.33;;;-0.10;99.90;;;;;;5020733;28;20049;-89
2022/04/02 06:00:10;;;;;;;12.27;3.90;;;-0.10;99.90;;;;;;5016200;28;20045;-89
2022/04/02 06:02:37;;;;;;;11.83;3.70;;;0.00;99.90;;;;;;5034151;28;20056;-89
2022/04/02 06:05:04;;;;;;;10.87;3.90;;;0.00;99.90;;;;;;5015311;28;20045;-89
2022/04/02 06:07:30;;;;;;;10.10;3.40;;;0.00;99.90;;;;;;5015597;28;20067;-89
2022/04/02 06:09:56;;;;;;;11.03;3.63;;;0.00;99.90;;;;;;5016266;28;20045;-89
2022/04/02 06:12:22;;;;;;;9.23;3.23;;;0.20;99.90;;;;;;5033045;28;20124;-89
2022/04/02 06:14:48;;;;;;;10.90;3.60;;;0.40;99.90;;;;;;5015786;28;20041;-88
2022/04/02 06:17:13;;;;;;;11.17;3.37;;;0.10;99.90;;;;;;5032389;28;20041;-89
2022/04/02 06:19:39;;;;;;;9.87;3.70;;;0.10;99.90;;;;;;5033794;28;20072;-89
2022/04/02 06:22:07;;;;;;;9.23;3.30;;;0.20;99.90;;;;;;5033703;28;20041;-89
2022/04/02 06:24:36;;;;;;;12.10;3.80;;;0.20;99.90;;;;;;5032267;28;20514;-90
2022/04/02 06:27:02;;;;;;;10.13;3.67;;;0.20;99.90;;;;;;5036410;28;20057;-95
2022/04/02 06:29:28;;;;;;;9.67;3.33;;;1.90;99.90;;;;;;5040036;28;20087;-95
2022/04/02 06:31:54;;;;;;;10.47;3.50;;;0.30;99.90;;;;;;5048123;28;20037;-90
2022/04/02 06:34:20;;;;;;;10.20;3.63;;;0.30;99.90;;;;;;5041969;28;20462;-95
2022/04/02 06:36:46;;;;;;;11.47;4.00;;;0.40;99.90;;;;;;5019106;28;20084;-93
2022/04/02 06:39:14;;;;;;;11.77;4.00;;;0.40;99.90;;;;;;5020823;28;20069;-94
2022/04/02 06:41:40;;;;;;;9.93;3.87;;;0.40;99.90;;;;;;5040014;28;20109;-96
2022/04/02 06:44:08;;;;;;;11.53;3.70;;;0.50;99.90;;;;;;5042800;28;20042;-96
2022/04/02 06:46:34;;;;;;;11.17;3.80;;;0.50;99.90;;;;;;5036775;28;20049;-96
2022/04/02 06:49:00;;;;;;;10.57;3.80;;;0.50;99.90;;;;;;5017920;28;20061;-93
2022/04/02 06:51:40;;;;;;;9.63;3.77;;;0.50;99.90;;;;;;5023212;28;20045;-93
2022/04/02 06:54:18;;;;;;;9.50;3.70;;;0.80;99.90;;;;;;5035873;28;20531;-95
2022/04/02 06:56:58;;;;;;;15.00;4.10;;;0.60;99.90;;;;;;5019539;28;20385;-94
2022/04/02 06:59:45;;;;;;;9.87;3.60;;;0.20;99.90;;;;;;5045354;28;20042;-94
2022/04/02 07:02:23;;;;;;;9.23;3.50;;;0.80;99.90;;;;;;5020354;28;20045;-90
2022/04/02 07:05:07;;;;;;;13.13;3.93;;;0.60;99.90;;;;;;5015796;28;20104;-94
2022/04/02 07:07:52;;;;;;;9.77;3.77;;;0.90;99.90;;;;;;5017916;28;20049;-96
2022/04/02 07:10:30;;;;;;;;;;;0.70;99.90;;;;;;5014206;28;20481;-91
2022/04/02 07:13:08;;;;;;;10.97;3.70;;;1.10;99.90;;;;;;5013226;28;19968;-93
2022/04/02 07:15:39;;;;;;;13.10;3.70;;;1.60;99.90;;;;;;5032264;28;20111;-92
2022/04/02 07:18:09;;;;;;;9.70;3.27;;;2.70;99.90;;;;;;5032993;28;20041;-92
2022/04/02 07:20:38;;;;;;;9.33;3.60;;;1.10;99.90;;;;;;5014781;28;20084;-91
2022/04/02 07:23:22;;;;;;;9.83;3.70;;;1.10;99.90;;;;;;5031789;28;20038;-92
2022/04/02 07:25:50;;;;;;;9.97;3.90;;;2.20;99.90;;;;;;5033186;28;20342;-92
2022/04/02 07:28:18;;;;;;;10.07;3.63;;;1.20;99.90;;;;;;5014579;28;20060;-92
2022/04/02 07:30:43;;;;;;;11.17;3.50;;;1.30;99.90;;;;;;5015437;28;20052;-92
2022/04/02 07:33:09;;;;;;;10.40;3.70;;;1.40;99.90;;;;;;5033027;28;20037;-92
2022/04/02 07:35:57;;;;;;;10.30;4.13;;;1.30;99.90;;;;;;5032280;28;20048;-93
2022/04/02 07:38:40;;;;;;;9.77;3.80;;;3.40;99.90;;;;;;5015195;28;20045;-91
2022/04/02 07:41:14;;;;;;;9.87;3.90;;;1.80;99.90;;;;;;5032724;28;20045;-90
2022/04/02 07:43:49;;;;;;;11.60;4.00;;;1.90;99.90;;;;;;5014174;28;20057;-91
2022/04/02 07:46:18;;;;;;;10.17;3.73;;;2.00;99.90;;;;;;5032636;28;20057;-92
2022/04/02 07:48:47;;;;;;;9.13;3.53;;;2.00;99.90;;;;;;5014730;28;20049;-92
2022/04/02 07:51:33;;;;;;;10.27;3.73;;;2.10;99.90;;;;;;5036101;28;20547;-91
2022/04/02 07:54:03;;;;;;;8.80;3.37;;;2.20;99.90;;;;;;5018683;28;20136;-91
2022/04/02 07:56:43;;;;;;;9.00;3.40;;;3.80;99.90;;;;;;5038802;28;20136;-95
2022/04/02 07:59:54;;;;;;;12.10;3.60;;;2.20;99.90;;;;;;5045790;28;20107;-94
2022/04/02 08:05:30;;;;;;;10.73;3.27;;;2.50;99.90;;;;;;5019302;28;20053;-95
2022/04/02 08:08:11;;;;;;;8.73;3.30;;;2.30;99.90;;;;;;5039499;28;20046;-95
2022/04/02 08:10:37;;;;;;;10.27;3.47;;;2.60;99.90;;;;;;5040266;23;20413;-94
2022/04/02 08:13:14;;;;;;;10.50;3.60;;;3.50;99.90;;;;;;4999913;28;20054;-93
2022/04/02 08:15:54;;;;;;;8.50;3.20;;;4.50;99.90;;;;;;5000337;28;20054;-95
2022/04/02 08:18:32;;;;;;;9.17;3.00;;;3.00;99.90;;;;;;5017053;28;20038;-95
2022/04/02 08:21:06;;;;;;;10.70;3.23;;;3.40;99.90;;;;;;5000131;28;20104;-90
2022/04/02 08:23:31;;;;;;;8.38;2.92;;;4.50;99.90;;;;;;4999033;28;20053;-92
2022/04/02 08:26:38;;;;;;;8.00;2.90;;;3.40;99.90;;;;;;5004318;28;20405;-94
2022/04/02 08:29:44;;;;;;;7.80;2.57;;;3.70;99.90;;;;;;5019858;28;20057;-96
2022/04/02 08:32:47;;;;;;;7.83;2.70;;;3.90;99.90;;;;;;5008121;28;20117;-96
2022/04/02 08:35:20;;;;;;;9.17;3.00;;;3.90;99.90;;;;;;4997976;28;20065;-96
2022/04/02 08:41:27;;;;;;;8.67;3.30;;;4.70;99.90;;;;;;5021732;28;20049;-95
2022/04/02 08:44:31;;;;;;;8.43;2.80;;;4.40;99.90;;;;;;4996753;28;20481;-93
2022/04/02 08:47:24;;;;;;;8.23;3.10;;;4.50;99.90;;;;;;4993849;28;20082;-96
2022/04/02 08:50:28;;;;;;;8.43;2.60;;;4.40;99.90;;;;;;4985896;28;20047;-96
2022/04/02 08:52:56;;;;;;;7.20;2.50;;;4.50;99.90;;;;;;4989440;28;20081;-91
2022/04/02 08:55:34;;;;;;;9.07;2.87;;;4.20;99.90;;;;;;4994190;28;20042;-93
2022/04/02 08:58:24;;;;;;;7.40;2.30;;;4.50;99.90;;;;;;5001145;28;20054;-94
2022/04/02 09:01:28;;;;;;;9.03;3.00;;;4.70;99.90;;;;;;5003303;28;20038;-95
2022/04/02 09:04:34;;;;;;;8.10;2.55;;;5.10;99.90;;;;;;5007670;28;20026;-95
2022/04/02 09:07:39;;;;;;;7.87;2.40;;;5.40;99.90;;;;;;4995349;28;20049;-93
2022/04/02 09:10:26;;;;;;;7.70;2.47;;;5.50;99.90;;;;;;4994091;28;20406;-90
2022/04/02 09:13:38;;;;;;;7.03;2.20;;;5.10;99.90;;;;;;4995020;28;20406;-89
2022/04/02 09:16:06;;;;;;;6.03;2.00;;;5.00;99.90;;;;;;4995755;28;20046;-92
2022/04/02 09:19:19;;;;;;;8.40;2.20;;;5.10;99.90;;;;;;4993957;28;20050;-92
2022/04/02 09:22:03;;;;;;;7.80;2.60;;;5.30;99.90;;;;;;4973650;28;20039;-91
2022/04/02 09:25:07;;;;;;;7.43;2.37;;;5.40;99.90;;;;;;4973891;28;20134;-92
2022/04/02 09:28:09;;;;;;;7.57;2.20;;;5.60;99.90;;;;;;4972338;28;20430;-92
2022/04/02 09:31:12;;;;;;;7.23;2.07;;;5.10;99.90;;;;;;4957140;28;20547;-91
2022/04/02 09:33:59;;;;;;;7.93;2.40;;;5.70;99.90;;;;;;4984641;28;20062;-90
2022/04/02 09:36:43;;;;;;;7.17;2.20;;;6.50;99.90;;;;;;4994927;28;20049;-90
2022/04/02 09:39:30;;;;;;;7.03;2.25;;;5.70;99.90;;;;;;5004354;23;20104;-90
2022/04/02 09:41:58;;;;;;;8.27;2.60;;;5.80;99.90;;;;;;4996143;28;20140;-90
2022/04/02 09:44:58;;;;;;;8.23;2.60;;;5.80;99.90;;;;;;4996362;28;20046;-93
2022/04/02 09:59:54;;;;;;;6.43;2.00;;;7.20;99.90;;;;;;4996586;28;20109;-95
2022/04/02 10:03:23;;;;;;;6.17;2.10;;;6.20;99.90;;;;;;4975765;28;20117;-93
2022/04/02 10:06:36;;;;;;;6.73;2.17;;;5.70;99.90;;;;;;4935518;29;20083;-91
2022/04/02 10:09:05;;;;;;;5.73;1.93;;;6.20;99.90;;;;;;4889064;29;20059;-91
2022/04/02 10:12:08;;;;;;;7.27;2.00;;;6.60;99.90;;;;;;4898875;29;20511;-93
2022/04/02 10:14:41;;;;;;;6.07;1.90;;;5.10;99.90;;;;;;4976144;28;20388;-91
2022/04/02 10:17:25;;;;;;;5.80;2.00;;;4.80;99.90;;;;;;4977445;28;20513;-93
2022/04/02 10:20:08;;;;;;;6.53;1.90;;;5.60;99.90;;;;;;5002940;23;20054;-91
2022/04/02 10:23:02;;;;;;;8.90;2.57;;;4.40;99.90;;;;;;5004973;28;20133;-92
2022/04/02 10:26:11;;;;;;;;;;;3.60;99.90;;;;;;4996719;28;20041;-91
2022/04/02 10:28:58;;;;;;;7.30;2.00;;;4.90;99.90;;;;;;4996849;28;19972;-91
2022/04/02 10:32:14;;;;;;;8.50;2.13;;;5.30;99.90;;;;;;4994556;28;20045;-90
2022/04/02 10:34:52;;;;;;;8.27;2.10;;;5.30;99.90;;;;;;5020372;23;20054;-90
2022/04/02 10:37:42;;;;;;;7.53;2.10;;;4.30;99.90;;;;;;4994881;28;20092;-89
2022/04/02 10:40:12;;;;;;;5.90;1.97;;;4.50;99.90;;;;;;4996221;28;20091;-90
2022/04/02 10:42:53;;;;;;;7.23;2.30;;;4.70;99.90;;;;;;4995863;28;20045;-89
2022/04/02 10:45:22;;;;;;;7.70;2.10;;;5.10;99.90;;;;;;4995766;28;20044;-91
2022/04/02 10:48:10;;;;;;;8.53;2.30;;;7.30;99.90;;;;;;4995831;28;20088;-90
2022/04/02 10:50:42;;;;;;;6.80;1.87;;;5.70;99.90;;;;;;5016574;28;20046;-95
2022/04/02 10:53:26;;;;;;;6.87;2.10;;;5.70;99.90;;;;;;5026170;28;20058;-88
2022/04/02 10:55:58;;;;;;;7.20;2.20;;;5.50;99.90;;;;;;4996611;28;20390;-94
2022/04/02 10:58:44;;;;;;;6.00;1.90;;;5.70;99.90;;;;;;4995248;28;20050;-91
2022/04/02 11:01:26;;;;;;;8.37;2.07;;;5.20;99.90;;;;;;5013791;28;20374;-91
2022/04/02 11:04:24;;;;;;;5.07;1.73;;;5.20;99.90;;;;;;4998856;28;20100;-94
2022/04/02 11:07:06;;;;;;;6.43;1.80;;;5.20;99.90;;;;;;4996414;28;20493;-91
2022/04/02 11:09:32;;;;;;;6.77;2.17;;;4.70;99.90;;;;;;5023070;28;20375;-91
2022/04/02 11:12:26;;;;;;;6.73;1.90;;;4.90;99.90;;;;;;5000519;28;20038;-90
2022/04/02 11:15:07;;;;;;;7.15;2.13;;;5.40;99.90;;;;;;5013768;28;20042;-93
2022/04/02 11:17:46;;;;;;;7.27;1.80;;;5.20;99.90;;;;;;4996572;28;20049;-94
2022/04/02 11:20:21;;;;;;;7.53;2.17;;;5.50;99.90;;;;;;4999161;28;20065;-96
2022/04/02 11:23:35;;;;;;;;;;;;;;;;;;;;;
2022/04/02 11:26:32;;;;;;;6.63;1.93;;;5.90;99.90;;;;;;4977911;28;20076;-94
2022/04/02 11:29:38;;;;;;;5.63;2.00;;;5.90;99.90;;;;;;5025207;23;20058;-90
2022/04/02 11:32:10;;;;;;;5.77;1.90;;;6.20;99.90;;;;;;5013049;23;20045;-91
2022/04/02 11:34:42;;;;;;;5.37;1.97;;;6.00;99.90;;;;;;5022561;28;20046;-89
2022/04/02 11:37:31;;;;;;;6.83;2.20;;;6.10;99.90;;;;;;5001334;28;20092;-92
2022/04/02 11:40:11;;;;;;;8.80;2.37;;;5.90;99.90;;;;;;4999929;28;20057;-93
2022/04/02 11:42:47;;;;;;;5.43;1.80;;;6.10;99.90;;;;;;4998534;28;20532;-92
2022/04/02 11:45:19;;;;;;;5.70;1.87;;;5.80;99.90;;;;;;4999075;28;20042;-92
2022/04/02 11:48:07;;;;;;;6.73;2.40;;;6.00;99.90;;;;;;5016378;28;20057;-92
2022/04/02 11:50:45;;;;;;;6.27;2.17;;;6.20;99.90;;;;;;4999786;28;20069;-90
2022/04/02 11:53:29;;;;;;;6.83;2.13;;;6.40;99.90;;;;;;5003308;28;20042;-93
2022/04/02 11:56:00;;;;;;;7.75;2.10;;;6.70;99.90;;;;;;5016209;28;20104;-92
2022/04/02 11:58:40;;;;;;;5.83;1.97;;;7.10;99.90;;;;;;4998563;28;20136;-93
2022/04/02 12:01:09;;;;;;;6.40;2.10;;;7.60;99.90;;;;;;4999219;28;20056;-91
2022/04/02 12:04:22;;;;;;;5.18;1.85;;;6.40;99.90;;;;;;5018037;28;20049;-93
2022/04/02 12:07:06;;;;;;;7.20;2.00;;;6.10;98.00;;;;;;4998957;28;20399;-94
2022/04/02 12:09:58;;;;;;;6.60;2.00;;;6.80;99.90;;;;;;4997504;28;20061;-92
2022/04/02 12:12:42;;;;;;;6.67;2.00;;;7.80;99.90;;;;;;5006049;28;20093;-93
2022/04/02 12:15:09;;;;;;;5.40;1.90;;;6.90;99.90;;;;;;4998864;28;20049;-93
2022/04/02 12:17:39;;;;;;;6.57;2.03;;;6.40;99.90;;;;;;4998952;28;20540;-95
2022/04/02 12:20:13;;;;;;;6.73;2.10;;;6.00;99.90;;;;;;5002530;28;20042;-95
2022/04/02 12:23:22;;;;;;;6.78;2.10;;;7.90;99.90;;;;;;5057390;23;20054;-96
2022/04/02 12:26:00;;;;;;;6.03;2.05;;;5.20;99.90;;;;;;4999874;28;20053;-95
2022/04/02 12:28:45;;;;;;;6.60;2.13;;;6.60;99.90;;;;;;5016307;28;20041;-95
2022/04/02 12:31:14;;;;;;;5.60;1.80;;;4.90;99.90;;;;;;4997713;28;20045;-94
2022/04/02 12:33:51;;;;;;;4.97;1.70;;;4.80;99.90;;;;;;5005915;23;20115;-94
2022/04/02 12:43:38;;;;;;;6.03;1.80;;;4.90;99.90;;;;;;4959868;28;20047;-96
2022/04/02 12:46:23;;;;;;;6.50;1.97;;;4.70;99.90;;;;;;4956005;28;20039;-94
2022/04/02 12:48:53;;;;;;;7.37;2.10;;;5.20;99.90;;;;;;4958689;28;20046;-95
2022/04/02 12:51:19;;;;;;;6.63;2.27;;;5.30;99.90;;;;;;4963861;28;20099;-93
2022/04/02 12:54:01;;;;;;;7.13;2.20;;;6.20;99.90;;;;;;4981708;28;20046;-92
2022/04/02 12:56:35;;;;;;;7.57;2.30;;;5.60;99.90;;;;;;5064440;23;20145;-92
2022/04/02 12:59:38;;;;;;;6.97;1.80;;;5.80;99.90;;;;;;5015023;28;20042;-90
2022/04/02 13:02:21;;;;;;;7.07;2.00;;;6.20;99.90;;;;;;4997237;28;20561;-91
2022/04/02 13:04:54;;;;;;;6.20;2.07;;;6.60;99.90;;;;;;4995538;28;20052;-92
2022/04/02 13:07:29;;;;;;;5.57;1.70;;;6.70;99.90;;;;;;5011577;28;20066;-92
2022/04/02 13:10:13;;;;;;;5.80;1.90;;;6.60;99.90;;;;;;4997191;28;20414;-87
2022/04/02 13:12:52;;;;;;;6.43;2.03;;;6.30;98.80;;;;;;4998010;28;20038;-91
2022/04/02 13:15:32;;;;;;;5.60;1.80;;;6.20;99.90;;;;;;5000046;28;20050;-91
2022/04/02 13:21:32;;;;;;;7.00;2.13;;;6.10;99.90;;;;;;4996953;28;20049;-90
2022/04/02 13:24:53;;;;;;;5.30;1.80;;;7.20;99.90;;;;;;4997565;28;20046;-91
2022/04/02 13:28:04;;;;;;;5.63;1.90;;;6.00;99.90;;;;;;4957237;28;20106;-91
2022/04/02 13:30:52;;;;;;;7.33;2.10;;;5.90;99.90;;;;;;4953670;28;20392;-90
2022/04/02 13:34:00;;;;;;;7.40;1.93;;;5.90;99.90;;;;;;4937783;29;20063;-91
2022/04/02 13:36:55;;;;;;;6.70;2.03;;;5.90;99.90;;;;;;4956548;28;20058;-92
2022/04/02 13:39:27;;;;;;;5.00;1.50;;;6.00;99.20;;;;;;4992284;28;20131;-92
2022/04/02 13:42:06;;;;;;;3.83;1.67;;;6.80;99.90;;;;;;4997509;28;20046;-91
2022/04/02 13:44:52;;;;;;;5.47;1.80;;;6.60;99.00;;;;;;4996663;28;20128;-91
2022/04/02 13:47:31;;;;;;;5.97;1.80;;;8.10;97.90;;;;;;5013379;28;20056;-90
2022/04/02 13:50:08;;;;;;;6.13;2.03;;;7.60;98.80;;;;;;4998497;28;20045;-90
2022/04/02 13:53:10;;;;;;;6.17;1.90;;;7.70;99.30;;;;;;5017569;28;20069;-90
2022/04/02 13:56:26;;;;;;;6.07;1.83;;;8.10;95.90;;;;;;4998224;28;20070;-89
2022/04/02 13:59:18;;;;;;;6.27;2.07;;;7.30;93.60;;;;;;4992228;28;20042;-89
2022/04/02 14:01:53;;;;;;;6.38;1.83;;;7.00;96.70;;;;;;4989696;28;20057;-88
2022/04/02 14:04:50;;;;;;;8.32;2.10;;;7.10;96.20;;;;;;4992467;28;20050;-88
2022/04/02 14:07:28;;;;;;;6.87;2.17;;;6.50;96.90;;;;;;4991723;28;20441;-90
2022/04/02 14:10:18;;;;;;;5.00;1.67;;;6.30;97.10;;;;;;4993004;28;20509;-90